Time;durP1;ratioP1;P1;durP2;ratioP2;P2;SDS_P1;SDS_P2;PMS_P1;PMS_P2;Temp;Humidity;BMP_temperature;BMP_pressure;BME280_temperature;BME280_humidity;BME280_pressure;Samples;Min_cycle;Max_cycle;Signal;HPM_P1;HPM_P2
2023/08/25 00:00:05;;;;;;;4.95;1.10;;;11.40;99.90;;;;;;4991427;28;20405;-89
2023/08/25 00:02:31;;;;;;;4.63;1.33;;;11.40;99.90;;;;;;4992907;28;20022;-90
2023/08/25 00:04:57;;;;;;;3.50;1.10;;;11.30;99.90;;;;;;4991741;28;20505;-90
2023/08/25 00:07:22;;;;;;;4.28;0.90;;;11.30;99.90;;;;;;4992285;28;20018;-90
2023/08/25 00:09:48;;;;;;;2.58;0.88;;;11.30;99.90;;;;;;4990956;28;20053;-90
2023/08/25 00:12:14;;;;;;;3.15;0.88;;;11.20;99.90;;;;;;4992437;28;20076;-89
2023/08/25 00:14:39;;;;;;;2.13;0.40;;;11.20;99.90;;;;;;4991367;28;20053;-89
2023/08/25 00:17:05;;;;;;;7.72;2.17;;;11.20;99.90;;;;;;4991381;28;20468;-90
2023/08/25 00:19:31;;;;;;;2.22;0.80;;;11.10;99.90;;;;;;4991313;28;20019;-90
2023/08/25 00:21:57;;;;;;;3.38;0.82;;;11.10;99.90;;;;;;4991504;28;20046;-89
2023/08/25 00:24:22;;;;;;;3.67;0.70;;;11.00;99.90;;;;;;4991335;28;20109;-89
2023/08/25 00:26:48;;;;;;;4.57;0.95;;;11.00;99.90;;;;;;4992924;28;20029;-90
2023/08/25 00:29:13;;;;;;;4.13;0.98;;;11.00;99.90;;;;;;4992861;28;20050;-90
2023/08/25 00:31:39;;;;;;;4.45;0.85;;;10.90;99.90;;;;;;4991454;28;20109;-90
2023/08/25 00:34:05;;;;;;;6.20;0.70;;;10.90;99.90;;;;;;4991383;28;20022;-90
2023/08/25 00:36:31;;;;;;;4.82;1.00;;;10.80;99.90;;;;;;4991284;28;20037;-90
2023/08/25 00:38:56;;;;;;;2.60;0.82;;;10.80;99.90;;;;;;4991503;28;20022;-90
2023/08/25 00:41:22;;;;;;;4.50;1.08;;;10.70;99.90;;;;;;4990937;28;20102;-90
2023/08/25 00:43:48;;;;;;;4.85;1.05;;;10.70;99.90;;;;;;4990820;28;20117;-89
2023/08/25 00:46:18;;;;;;;3.83;0.90;;;10.70;99.90;;;;;;4991223;28;20130;-88
2023/08/25 00:48:44;;;;;;;2.45;0.75;;;10.70;99.90;;;;;;4991005;28;20014;-89
2023/08/25 00:51:09;;;;;;;3.72;0.95;;;10.60;99.90;;;;;;4990901;28;20037;-89
2023/08/25 00:53:37;;;;;;;2.90;1.10;;;10.60;99.90;;;;;;4993983;28;20034;-90
2023/08/25 00:56:03;;;;;;;7.07;1.55;;;10.50;99.90;;;;;;4997679;28;20042;-90
2023/08/25 00:58:29;;;;;;;4.03;1.38;;;10.40;99.90;;;;;;4997948;28;20026;-90
2023/08/25 01:00:56;;;;;;;3.90;1.42;;;10.30;99.90;;;;;;5002328;28;20034;-89
2023/08/25 01:03:22;;;;;;;5.25;1.00;;;10.20;99.90;;;;;;5001465;28;20015;-89
2023/08/25 01:05:48;;;;;;;6.85;1.50;;;10.10;99.90;;;;;;4999560;28;20034;-89
2023/08/25 01:08:16;;;;;;;4.50;1.05;;;10.00;99.90;;;;;;4997575;28;20026;-89
2023/08/25 01:10:47;;;;;;;1.95;0.88;;;10.00;99.90;;;;;;4997429;28;20038;-88
2023/08/25 01:13:26;;;;;;;4.82;0.77;;;10.00;99.90;;;;;;5005345;28;20508;-88
2023/08/25 01:15:54;;;;;;;2.97;1.00;;;10.00;99.90;;;;;;4996889;28;20022;-89
2023/08/25 01:18:27;;;;;;;3.35;0.95;;;10.00;99.90;;;;;;4996583;28;20023;-89
2023/08/25 01:20:54;;;;;;;2.60;1.00;;;10.00;99.90;;;;;;4996596;28;20101;-89
2023/08/25 01:23:32;;;;;;;3.40;0.90;;;10.00;99.90;;;;;;4997188;28;20517;-89
2023/08/25 01:25:58;;;;;;;2.35;1.20;;;10.00;99.90;;;;;;4996758;28;20037;-89
2023/08/25 01:28:25;;;;;;;5.30;1.40;;;10.00;99.90;;;;;;4998167;28;20464;-89
2023/08/25 01:30:54;;;;;;;6.25;1.63;;;9.90;99.90;;;;;;4996626;28;20387;-88
2023/08/25 01:33:21;;;;;;;7.30;1.60;;;9.80;99.90;;;;;;4997018;28;20072;-89
2023/08/25 01:36:13;;;;;;;4.47;1.20;;;9.80;99.90;;;;;;4996811;28;20023;-88
2023/08/25 01:39:11;;;;;;;8.05;1.55;;;9.80;99.90;;;;;;4997204;28;20044;-88
2023/08/25 01:41:46;;;;;;;5.25;1.48;;;9.80;99.90;;;;;;4998014;28;20049;-89
2023/08/25 01:44:15;;;;;;;3.15;1.00;;;9.70;99.90;;;;;;4999075;28;20080;-88
2023/08/25 01:46:44;;;;;;;8.13;1.30;;;9.70;99.90;;;;;;4999765;28;20403;-89
2023/08/25 01:49:11;;;;;;;3.55;1.20;;;9.60;99.90;;;;;;5000323;28;20145;-88
2023/08/25 01:51:38;;;;;;;3.15;1.20;;;9.50;99.90;;;;;;4999437;28;20053;-88
2023/08/25 01:54:04;;;;;;;3.45;1.20;;;9.50;99.90;;;;;;5000195;28;20028;-88
2023/08/25 01:56:29;;;;;;;4.90;1.52;;;9.50;99.90;;;;;;5000494;28;20029;-88
2023/08/25 01:58:55;;;;;;;1.90;1.00;;;9.50;99.90;;;;;;5000598;28;20022;-88
2023/08/25 02:01:21;;;;;;;6.05;1.50;;;9.50;99.90;;;;;;5000648;28;20030;-89
2023/08/25 02:03:46;;;;;;;3.90;1.20;;;9.50;99.90;;;;;;5000681;28;20026;-88
2023/08/25 02:06:12;;;;;;;6.75;1.25;;;9.50;99.90;;;;;;4997132;28;20045;-89
2023/08/25 02:08:38;;;;;;;5.50;1.48;;;9.50;99.90;;;;;;4997183;28;20042;-88
2023/08/25 02:11:04;;;;;;;4.55;0.85;;;9.50;99.90;;;;;;4996957;28;20058;-88
2023/08/25 02:13:30;;;;;;;4.88;1.40;;;9.50;99.90;;;;;;5013028;28;20029;-88
2023/08/25 02:15:55;;;;;;;4.32;1.50;;;9.50;99.90;;;;;;4996986;28;20022;-88
2023/08/25 02:18:21;;;;;;;5.97;1.48;;;9.50;99.90;;;;;;4996740;28;20030;-88
2023/08/25 02:20:47;;;;;;;4.60;1.05;;;9.50;99.90;;;;;;4996850;28;20022;-88
2023/08/25 02:23:12;;;;;;;5.13;1.33;;;9.50;99.90;;;;;;4997098;28;20048;-89
2023/08/25 02:25:38;;;;;;;4.13;1.40;;;9.60;99.90;;;;;;4996532;28;20022;-90
2023/08/25 02:28:04;;;;;;;6.40;1.70;;;9.50;99.90;;;;;;4996538;28;20022;-88
2023/08/25 02:30:30;;;;;;;4.10;1.30;;;9.50;99.90;;;;;;4996667;28;20034;-88
2023/08/25 02:32:56;;;;;;;3.72;1.40;;;9.40;99.90;;;;;;4996665;28;20030;-89
2023/08/25 02:35:21;;;;;;;5.85;1.50;;;9.30;99.90;;;;;;4996807;28;20375;-89
2023/08/25 02:38:08;;;;;;;6.40;1.80;;;9.30;99.90;;;;;;4996667;28;20071;-88
2023/08/25 02:40:34;;;;;;;5.10;1.58;;;9.30;99.90;;;;;;4996378;28;20042;-88
2023/08/25 02:43:04;;;;;;;4.10;1.58;;;9.20;99.90;;;;;;4996352;28;20014;-89
2023/08/25 02:45:31;;;;;;;6.35;1.58;;;9.20;99.90;;;;;;4995878;28;20069;-89
2023/08/25 02:47:57;;;;;;;4.25;1.20;;;9.20;99.90;;;;;;4996074;28;20037;-88
2023/08/25 02:50:24;;;;;;;1.77;1.23;;;9.20;99.90;;;;;;4996045;28;20033;-88
2023/08/25 02:52:49;;;;;;;5.68;1.38;;;9.20;99.90;;;;;;4995765;28;20036;-89
2023/08/25 02:55:18;;;;;;;7.35;1.50;;;9.20;99.90;;;;;;4996419;28;20021;-87
2023/08/25 02:57:43;;;;;;;6.35;1.67;;;9.10;99.90;;;;;;4996142;28;20030;-89
2023/08/25 03:00:21;;;;;;;5.93;1.33;;;9.10;99.90;;;;;;4996207;28;20056;-89
2023/08/25 03:02:50;;;;;;;4.40;1.55;;;9.10;99.90;;;;;;5013455;28;20130;-89
2023/08/25 03:05:16;;;;;;;5.05;2.08;;;9.10;99.90;;;;;;4993267;28;20022;-90
2023/08/25 03:07:41;;;;;;;2.20;1.25;;;9.00;99.90;;;;;;4995291;28;20642;-90
2023/08/25 03:10:08;;;;;;;2.55;1.30;;;9.10;99.90;;;;;;4997402;28;20061;-89
2023/08/25 03:12:34;;;;;;;3.30;1.63;;;9.10;99.90;;;;;;4997721;28;20077;-90
2023/08/25 03:14:59;;;;;;;3.28;1.10;;;9.10;99.90;;;;;;5000630;28;20026;-89
2023/08/25 03:17:26;;;;;;;2.78;1.10;;;9.10;99.90;;;;;;4994310;28;20046;-88
2023/08/25 03:19:52;;;;;;;3.55;1.38;;;9.10;99.90;;;;;;4995600;28;20072;-89
2023/08/25 03:22:17;;;;;;;7.75;1.40;;;9.10;99.90;;;;;;4995421;28;20018;-89
2023/08/25 03:24:43;;;;;;;3.35;1.60;;;9.10;99.90;;;;;;4995072;28;20056;-89
2023/08/25 03:27:09;;;;;;;6.03;2.08;;;9.10;99.90;;;;;;4996315;28;20065;-91
2023/08/25 03:29:34;;;;;;;6.60;1.92;;;9.10;99.90;;;;;;4997026;28;20026;-88
2023/08/25 03:32:01;;;;;;;3.75;1.60;;;8.90;99.90;;;;;;4995388;28;20048;-89
2023/08/25 03:34:26;;;;;;;3.05;1.30;;;8.90;99.90;;;;;;4995675;28;20076;-89
2023/08/25 03:36:52;;;;;;;5.40;1.60;;;8.80;99.90;;;;;;4994646;28;20030;-89
2023/08/25 03:39:18;;;;;;;4.75;1.60;;;8.90;99.90;;;;;;4995254;28;20129;-89
2023/08/25 03:41:45;;;;;;;3.83;1.30;;;8.80;99.90;;;;;;4995331;28;20026;-89
2023/08/25 03:44:10;;;;;;;6.85;1.40;;;8.90;99.90;;;;;;4995288;28;20116;-89
2023/08/25 03:46:36;;;;;;;11.52;2.58;;;8.90;99.90;;;;;;4996061;28;20406;-89
2023/08/25 03:49:03;;;;;;;7.82;1.67;;;8.80;99.90;;;;;;4995328;28;20377;-89
2023/08/25 03:51:28;;;;;;;6.53;1.88;;;8.80;99.90;;;;;;4995122;28;20467;-88
2023/08/25 03:53:54;;;;;;;7.22;2.08;;;8.80;99.90;;;;;;4995542;28;20030;-89
2023/08/25 03:56:20;;;;;;;7.55;1.55;;;8.80;99.90;;;;;;4996056;28;20079;-88
2023/08/25 03:58:45;;;;;;;5.60;1.45;;;8.70;99.90;;;;;;4995842;28;20080;-88
2023/08/25 04:01:11;;;;;;;4.57;1.52;;;8.70;99.90;;;;;;4995574;28;20018;-88
2023/08/25 04:03:37;;;;;;;7.82;1.73;;;8.70;99.90;;;;;;4995024;28;20407;-88
2023/08/25 04:06:02;;;;;;;4.47;1.90;;;8.80;99.90;;;;;;4995111;28;20026;-88
2023/08/25 04:08:28;;;;;;;5.35;1.80;;;8.80;99.90;;;;;;4995313;28;20566;-88
2023/08/25 04:10:53;;;;;;;6.18;1.60;;;8.80;99.90;;;;;;4994753;28;20038;-89
2023/08/25 04:13:19;;;;;;;5.45;1.80;;;8.80;99.90;;;;;;4994833;28;20029;-89
2023/08/25 04:15:56;;;;;;;4.88;1.80;;;8.80;99.90;;;;;;4994731;28;20478;-89
2023/08/25 04:18:22;;;;;;;5.88;1.67;;;8.80;99.90;;;;;;4994751;28;20074;-89
2023/08/25 04:20:48;;;;;;;6.07;1.50;;;8.80;99.90;;;;;;4994729;28;20375;-88
2023/08/25 04:23:14;;;;;;;4.15;1.38;;;8.80;99.90;;;;;;5012542;28;20101;-89
2023/08/25 04:25:40;;;;;;;6.90;1.63;;;8.80;99.90;;;;;;4995181;28;20160;-88
2023/08/25 04:28:05;;;;;;;5.35;1.40;;;8.80;99.90;;;;;;4994816;28;20028;-87
2023/08/25 04:30:31;;;;;;;4.15;1.70;;;8.80;99.90;;;;;;4994849;28;20507;-87
2023/08/25 04:32:57;;;;;;;4.90;1.70;;;8.70;99.90;;;;;;4994592;28;20037;-88
2023/08/25 04:35:22;;;;;;;5.03;1.65;;;8.70;99.90;;;;;;4993868;28;20113;-88
2023/08/25 04:37:48;;;;;;;4.13;2.08;;;8.70;99.90;;;;;;4994364;28;20038;-88
2023/08/25 04:40:18;;;;;;;4.35;1.70;;;8.60;99.90;;;;;;4994608;28;20113;-88
2023/08/25 04:42:43;;;;;;;4.97;1.85;;;8.70;99.90;;;;;;4994762;28;20379;-88
2023/08/25 04:45:11;;;;;;;4.53;1.60;;;8.60;99.90;;;;;;4993806;28;20124;-88
2023/08/25 04:47:37;;;;;;;3.35;1.50;;;8.70;99.90;;;;;;4994335;28;20033;-88
2023/08/25 04:50:07;;;;;;;4.05;1.35;;;8.70;99.90;;;;;;4994409;28;20036;-88
2023/08/25 04:52:36;;;;;;;6.47;1.53;;;8.70;99.90;;;;;;4993563;28;20030;-88
2023/08/25 04:55:04;;;;;;;2.72;1.60;;;8.70;99.90;;;;;;4994204;28;20029;-89
2023/08/25 04:57:30;;;;;;;7.03;1.50;;;8.70;99.90;;;;;;4993696;28;20026;-88
2023/08/25 04:59:56;;;;;;;4.88;1.50;;;8.70;99.90;;;;;;4993694;28;20476;-88
2023/08/25 05:02:21;;;;;;;8.35;2.00;;;8.70;99.90;;;;;;4994048;28;20061;-87
2023/08/25 05:04:47;;;;;;;5.40;1.58;;;8.60;99.90;;;;;;4994237;28;20022;-88
2023/08/25 05:07:13;;;;;;;4.63;1.50;;;8.60;99.90;;;;;;4994240;28;20018;-87
2023/08/25 05:09:38;;;;;;;3.63;1.63;;;8.60;99.90;;;;;;4993778;28;20392;-87
2023/08/25 05:12:04;;;;;;;4.47;1.83;;;8.60;99.90;;;;;;4994031;28;20032;-87
2023/08/25 05:14:30;;;;;;;5.30;1.50;;;8.60;99.90;;;;;;4995552;28;20100;-87
2023/08/25 05:16:56;;;;;;;3.92;1.58;;;8.60;99.90;;;;;;4998271;28;20034;-88
2023/08/25 05:19:21;;;;;;;3.30;1.63;;;8.60;99.90;;;;;;4996237;28;20028;-88
2023/08/25 05:21:47;;;;;;;5.95;1.98;;;8.60;99.90;;;;;;4995776;28;20036;-89
2023/08/25 05:24:20;;;;;;;2.83;1.60;;;8.60;99.90;;;;;;4995320;28;20060;-87
2023/08/25 05:26:47;;;;;;;4.20;1.58;;;8.60;99.90;;;;;;4993962;28;20045;-89
2023/08/25 05:29:14;;;;;;;6.10;1.75;;;8.60;99.90;;;;;;5010442;28;20022;-89
2023/08/25 05:31:40;;;;;;;5.80;1.77;;;8.60;99.90;;;;;;4993612;28;20043;-88
2023/08/25 05:34:06;;;;;;;5.07;1.67;;;8.60;99.90;;;;;;4993249;28;20078;-88
2023/08/25 05:36:31;;;;;;;8.93;2.30;;;8.60;99.90;;;;;;4993609;28;20030;-88
2023/08/25 05:38:57;;;;;;;9.82;1.48;;;8.60;99.90;;;;;;4993528;28;20034;-89
2023/08/25 05:41:23;;;;;;;3.97;1.58;;;8.60;99.90;;;;;;4996472;28;20025;-88
2023/08/25 05:43:48;;;;;;;2.45;1.50;;;8.60;99.90;;;;;;4997131;28;20030;-89
2023/08/25 05:46:14;;;;;;;7.93;1.40;;;8.60;99.90;;;;;;4996905;28;20046;-88
2023/08/25 05:48:40;;;;;;;5.30;1.85;;;8.60;99.90;;;;;;4997183;28;20080;-88
2023/08/25 05:51:06;;;;;;;6.22;1.50;;;8.60;99.90;;;;;;4996814;28;20028;-89
2023/08/25 05:53:31;;;;;;;5.55;1.73;;;8.60;99.90;;;;;;4997010;28;20026;-90
2023/08/25 05:55:57;;;;;;;4.82;1.90;;;8.60;99.90;;;;;;4997081;28;20021;-87
2023/08/25 05:58:23;;;;;;;3.70;1.80;;;8.70;99.90;;;;;;4997020;28;20514;-88
2023/08/25 06:00:49;;;;;;;4.53;2.33;;;8.70;99.90;;;;;;4996713;28;20057;-88
2023/08/25 06:03:16;;;;;;;3.83;1.70;;;8.70;99.90;;;;;;4995436;28;20056;-88
2023/08/25 06:05:42;;;;;;;4.70;1.63;;;8.80;99.90;;;;;;4995930;28;20026;-88
2023/08/25 06:08:08;;;;;;;5.80;1.60;;;8.80;99.90;;;;;;4996131;28;20018;-87
2023/08/25 06:10:35;;;;;;;6.18;1.90;;;8.80;99.90;;;;;;4995943;28;20034;-87
2023/08/25 06:13:01;;;;;;;6.03;2.00;;;8.80;99.90;;;;;;4996328;28;20038;-88
2023/08/25 06:15:26;;;;;;;5.10;2.10;;;8.90;99.90;;;;;;4995798;28;20369;-88
2023/08/25 06:17:52;;;;;;;6.05;2.50;;;8.90;99.90;;;;;;4996340;28;20503;-88
2023/08/25 06:20:18;;;;;;;10.00;1.80;;;8.90;99.90;;;;;;4996190;28;20051;-87
2023/08/25 06:22:43;;;;;;;5.72;1.60;;;8.90;99.90;;;;;;4996493;28;20434;-87
2023/08/25 06:25:09;;;;;;;5.10;1.70;;;8.90;99.90;;;;;;4995942;28;20116;-87
2023/08/25 06:27:36;;;;;;;4.20;1.88;;;8.90;99.90;;;;;;4995309;28;20029;-87
2023/08/25 06:30:02;;;;;;;3.10;1.80;;;9.00;99.90;;;;;;4995508;28;20037;-87
2023/08/25 06:32:28;;;;;;;5.43;1.70;;;9.00;99.90;;;;;;4995439;28;20038;-88
2023/08/25 06:34:54;;;;;;;5.95;1.90;;;9.00;99.90;;;;;;4996013;28;20030;-87
2023/08/25 06:37:20;;;;;;;3.97;2.00;;;9.10;99.90;;;;;;4995736;28;20052;-88
2023/08/25 06:39:47;;;;;;;7.30;1.73;;;9.10;99.90;;;;;;4995131;28;20025;-88
2023/08/25 06:42:13;;;;;;;4.97;2.00;;;9.20;99.90;;;;;;4994899;28;20030;-88
2023/08/25 06:44:40;;;;;;;10.73;2.63;;;9.20;99.90;;;;;;4992563;28;20049;-87
2023/08/25 06:47:06;;;;;;;5.07;2.13;;;9.20;99.90;;;;;;4992158;28;20060;-88
2023/08/25 06:49:31;;;;;;;5.88;2.15;;;9.30;99.90;;;;;;4992168;28;20053;-87
2023/08/25 06:51:57;;;;;;;5.90;2.10;;;9.30;99.90;;;;;;4991810;28;20435;-88
2023/08/25 06:54:24;;;;;;;4.82;2.20;;;9.40;99.90;;;;;;4992228;28;20023;-89
2023/08/25 06:56:50;;;;;;;4.78;2.25;;;9.50;99.90;;;;;;4991994;28;20034;-88
2023/08/25 06:59:16;;;;;;;3.83;2.40;;;9.60;99.90;;;;;;4991309;28;20082;-87
2023/08/25 07:01:44;;;;;;;2.97;1.92;;;9.60;99.90;;;;;;4993521;28;20034;-87
2023/08/25 07:04:10;;;;;;;6.07;2.10;;;9.70;99.90;;;;;;4991766;28;20038;-88
2023/08/25 07:06:36;;;;;;;6.75;2.15;;;9.70;99.90;;;;;;4991650;28;20275;-86
2023/08/25 07:09:03;;;;;;;4.55;2.33;;;9.90;99.90;;;;;;4991468;28;20030;-89
2023/08/25 07:11:29;;;;;;;12.15;2.90;;;9.90;99.90;;;;;;4991463;28;20472;-87
2023/08/25 07:13:54;;;;;;;7.07;3.13;;;10.00;99.90;;;;;;4991583;28;20153;-87
2023/08/25 07:16:20;;;;;;;6.20;2.17;;;10.10;99.90;;;;;;4991050;28;20514;-88
2023/08/25 07:18:45;;;;;;;8.95;2.50;;;10.20;99.90;;;;;;4989282;28;20519;-89
2023/08/25 07:21:11;;;;;;;9.63;2.53;;;10.30;99.90;;;;;;4990758;28;20476;-87
2023/08/25 07:23:37;;;;;;;4.78;2.50;;;10.40;99.90;;;;;;4988264;28;20019;-88
2023/08/25 07:26:04;;;;;;;3.85;2.38;;;10.40;99.90;;;;;;4991807;28;20031;-88
2023/08/25 07:28:30;;;;;;;7.93;2.60;;;10.60;99.90;;;;;;5000377;28;20073;-88
2023/08/25 07:30:56;;;;;;;8.15;2.50;;;10.70;99.90;;;;;;4991124;28;20034;-88
2023/08/25 07:33:23;;;;;;;6.13;2.55;;;10.80;99.90;;;;;;4988877;28;20201;-89
2023/08/25 07:35:49;;;;;;;6.47;2.90;;;11.00;99.90;;;;;;4990980;28;20043;-87
2023/08/25 07:38:15;;;;;;;8.93;2.67;;;11.10;99.90;;;;;;4988448;28;20029;-88
2023/08/25 07:40:41;;;;;;;4.20;2.53;;;11.30;99.90;;;;;;4990982;28;20026;-89
2023/08/25 07:43:07;;;;;;;5.82;1.90;;;11.50;99.90;;;;;;4989763;28;20030;-88
2023/08/25 07:45:33;;;;;;;7.22;2.50;;;11.60;99.90;;;;;;4989622;28;20038;-88
2023/08/25 07:47:59;;;;;;;8.13;2.40;;;11.80;99.90;;;;;;4992182;28;20058;-88
2023/08/25 07:50:30;;;;;;;12.73;2.28;;;12.00;99.90;;;;;;4990966;28;20030;-88
2023/08/25 07:52:56;;;;;;;4.25;1.98;;;12.10;99.90;;;;;;4988521;28;20060;-88
2023/08/25 07:55:23;;;;;;;7.70;2.15;;;12.20;99.90;;;;;;4988482;28;20042;-88
2023/08/25 07:57:49;;;;;;;9.30;2.40;;;12.40;99.90;;;;;;4990845;28;20041;-89
2023/08/25 08:00:15;;;;;;;12.27;2.35;;;12.50;99.90;;;;;;4991200;28;20041;-89
2023/08/25 08:02:49;;;;;;;8.27;1.95;;;12.70;99.90;;;;;;4990912;28;20152;-88
2023/08/25 08:05:17;;;;;;;4.97;2.30;;;12.80;99.90;;;;;;4990565;28;20057;-88
2023/08/25 08:07:44;;;;;;;6.25;1.73;;;13.00;99.90;;;;;;4990993;28;20073;-89
2023/08/25 08:10:11;;;;;;;7.63;1.75;;;13.20;99.90;;;;;;4991088;28;20037;-89
2023/08/25 08:12:38;;;;;;;6.40;1.50;;;13.40;99.90;;;;;;4990350;28;20038;-89
2023/08/25 08:15:06;;;;;;;7.07;2.35;;;13.60;99.90;;;;;;4991419;28;20065;-89
2023/08/25 08:17:32;;;;;;;6.95;1.70;;;13.70;99.90;;;;;;4991152;28;20045;-89
2023/08/25 08:19:58;;;;;;;2.42;1.50;;;13.80;99.90;;;;;;4990412;28;20464;-89
2023/08/25 08:22:23;;;;;;;4.90;1.60;;;14.00;99.90;;;;;;4992169;28;20030;-88
2023/08/25 08:24:50;;;;;;;7.95;2.10;;;14.10;99.90;;;;;;4999435;28;20045;-89
2023/08/25 08:27:17;;;;;;;8.93;1.88;;;14.10;99.90;;;;;;4993395;28;20065;-87
2023/08/25 08:29:44;;;;;;;8.65;1.90;;;14.20;99.90;;;;;;4992576;28;20026;-89
2023/08/25 08:32:11;;;;;;;3.05;1.25;;;14.30;99.90;;;;;;4991860;28;20085;-88
2023/08/25 08:34:37;;;;;;;7.43;1.30;;;14.40;99.90;;;;;;4991994;28;20026;-89
2023/08/25 08:37:05;;;;;;;3.60;1.27;;;14.40;99.90;;;;;;4993839;28;20026;-89
2023/08/25 08:39:34;;;;;;;6.45;1.40;;;14.50;99.90;;;;;;4990656;28;20139;-89
2023/08/25 08:42:03;;;;;;;5.88;1.60;;;14.70;99.90;;;;;;4992601;28;20026;-88
2023/08/25 08:44:36;;;;;;;3.55;1.23;;;14.70;99.90;;;;;;4993240;28;20054;-89
2023/08/25 08:47:06;;;;;;;6.47;1.15;;;14.80;99.90;;;;;;4990593;28;20093;-89
2023/08/25 08:49:34;;;;;;;4.03;1.20;;;14.80;99.90;;;;;;4990970;28;20036;-88
2023/08/25 08:52:01;;;;;;;5.78;1.20;;;14.90;99.90;;;;;;4989866;28;20050;-89
2023/08/25 08:54:28;;;;;;;4.85;1.10;;;15.00;99.90;;;;;;4990841;28;20052;-89
2023/08/25 08:56:54;;;;;;;3.78;1.10;;;15.10;99.90;;;;;;4990506;28;20022;-89
2023/08/25 08:59:20;;;;;;;4.32;0.88;;;15.10;99.90;;;;;;4992942;28;20073;-90
2023/08/25 09:01:48;;;;;;;5.85;1.10;;;15.20;99.90;;;;;;4990951;28;20094;-89
2023/08/25 09:04:17;;;;;;;4.35;0.90;;;15.20;99.90;;;;;;4991391;28;20023;-90
2023/08/25 09:06:43;;;;;;;2.65;1.20;;;15.30;99.90;;;;;;4992479;28;20472;-89
2023/08/25 09:09:09;;;;;;;4.47;1.10;;;15.30;99.90;;;;;;4992986;28;20037;-88
2023/08/25 09:11:36;;;;;;;2.88;1.00;;;15.40;99.90;;;;;;4992032;28;20026;-90
2023/08/25 09:14:05;;;;;;;10.90;1.60;;;15.50;99.90;;;;;;4992262;28;20531;-89
2023/08/25 09:16:37;;;;;;;2.33;0.98;;;15.60;99.90;;;;;;4993005;28;20041;-91
2023/08/25 09:19:03;;;;;;;3.97;1.17;;;15.70;99.90;;;;;;4992635;28;20181;-89
2023/08/25 09:21:29;;;;;;;3.05;1.20;;;15.80;99.90;;;;;;4995863;28;20464;-89
2023/08/25 09:23:58;;;;;;;4.35;0.93;;;16.00;99.90;;;;;;4994026;28;20030;-89
2023/08/25 09:26:25;;;;;;;3.25;0.80;;;16.20;99.90;;;;;;4994408;28;20703;-89
2023/08/25 09:28:58;;;;;;;2.97;0.95;;;16.30;99.90;;;;;;4994296;28;20030;-89
2023/08/25 09:31:31;;;;;;;1.33;0.70;;;16.50;99.90;;;;;;4995537;28;20121;-90
2023/08/25 09:34:02;;;;;;;2.85;0.90;;;16.40;99.90;;;;;;4997952;28;20019;-90
2023/08/25 09:36:29;;;;;;;1.98;0.80;;;16.40;99.90;;;;;;4996595;28;20023;-91
2023/08/25 09:38:54;;;;;;;3.08;0.90;;;16.40;99.90;;;;;;4994313;28;20026;-91
2023/08/25 09:41:29;;;;;;;3.60;1.27;;;16.40;99.90;;;;;;4994375;28;20046;-91
2023/08/25 09:43:59;;;;;;;5.80;0.90;;;16.30;99.90;;;;;;4995029;28;20069;-91
2023/08/25 09:46:29;;;;;;;2.50;0.90;;;16.40;99.90;;;;;;4997199;28;20030;-90
2023/08/25 09:49:06;;;;;;;2.05;0.80;;;16.30;99.90;;;;;;4997757;28;20264;-91
2023/08/25 09:51:41;;;;;;;1.73;1.00;;;16.30;99.90;;;;;;4997808;28;20095;-90
2023/08/25 09:54:16;;;;;;;4.28;1.10;;;16.30;99.90;;;;;;4997213;28;20022;-91
2023/08/25 09:56:51;;;;;;;2.60;0.90;;;16.40;99.90;;;;;;4997119;28;20030;-92
2023/08/25 09:59:16;;;;;;;3.20;0.90;;;16.40;99.90;;;;;;5014374;28;20511;-90
2023/08/25 10:01:44;;;;;;;4.93;1.00;;;16.50;99.90;;;;;;4996740;28;20021;-90
2023/08/25 10:04:10;;;;;;;4.07;1.10;;;16.50;99.90;;;;;;4996758;28;20029;-91
2023/08/25 10:06:37;;;;;;;4.20;1.38;;;16.50;99.90;;;;;;4996419;28;20033;-90
2023/08/25 10:09:05;;;;;;;1.60;1.08;;;16.60;99.90;;;;;;4996008;28;20036;-91
2023/08/25 10:11:41;;;;;;;3.80;1.20;;;16.50;99.90;;;;;;4996602;28;20053;-91
2023/08/25 10:14:10;;;;;;;2.83;0.98;;;16.50;99.90;;;;;;4996735;28;20040;-90
2023/08/25 10:16:45;;;;;;;4.65;1.00;;;16.60;99.90;;;;;;4996428;28;20076;-90
2023/08/25 10:19:16;;;;;;;2.75;0.90;;;16.80;99.90;;;;;;4996660;28;20050;-90
2023/08/25 10:21:49;;;;;;;3.22;1.25;;;16.80;99.90;;;;;;4996629;28;20101;-91
2023/08/25 10:24:17;;;;;;;4.63;0.90;;;17.00;99.90;;;;;;4996495;28;20121;-90
2023/08/25 10:26:45;;;;;;;3.10;1.02;;;17.10;99.90;;;;;;4995901;28;20014;-90
2023/08/25 10:29:13;;;;;;;2.80;1.00;;;17.20;99.90;;;;;;5012844;28;20026;-91
2023/08/25 10:31:46;;;;;;;1.90;0.95;;;17.30;99.90;;;;;;4999636;28;20080;-92
2023/08/25 10:34:52;;;;;;;2.03;0.90;;;17.40;99.90;;;;;;4997271;28;20057;-91
2023/08/25 10:37:30;;;;;;;1.65;1.00;;;17.60;99.90;;;;;;4956423;28;20525;-91
2023/08/25 10:40:06;;;;;;;6.35;1.42;;;17.70;99.90;;;;;;4974248;28;20038;-92
2023/08/25 10:42:33;;;;;;;2.72;1.15;;;17.80;99.90;;;;;;4955352;28;20027;-92
2023/08/25 10:45:14;;;;;;;2.95;0.85;;;18.10;99.90;;;;;;4956137;28;20055;-91
2023/08/25 10:47:41;;;;;;;4.07;0.60;;;18.20;99.90;;;;;;4953775;28;20034;-90
2023/08/25 10:50:08;;;;;;;2.47;0.82;;;18.20;99.90;;;;;;4955471;28;20471;-91
2023/08/25 10:52:33;;;;;;;1.45;0.70;;;18.20;99.90;;;;;;4953865;28;20047;-91
2023/08/25 10:55:23;;;;;;;2.35;0.75;;;18.30;99.90;;;;;;4955793;28;20524;-90
2023/08/25 10:58:03;;;;;;;2.25;0.90;;;18.30;99.40;;;;;;4955301;28;20093;-90
2023/08/25 11:00:43;;;;;;;1.45;0.70;;;18.30;99.00;;;;;;4955704;28;20033;-91
2023/08/25 11:03:09;;;;;;;3.85;1.20;;;18.30;98.80;;;;;;4956374;28;20042;-90
2023/08/25 11:05:34;;;;;;;3.35;0.90;;;18.20;98.30;;;;;;4954677;28;20046;-89
2023/08/25 11:08:05;;;;;;;3.70;1.08;;;18.30;98.20;;;;;;4955365;28;20030;-89
2023/08/25 11:10:36;;;;;;;8.05;1.08;;;18.30;97.90;;;;;;4963824;28;20041;-89
2023/08/25 11:13:08;;;;;;;4.15;1.05;;;18.50;97.70;;;;;;4994384;28;20049;-89
2023/08/25 11:15:38;;;;;;;2.92;1.10;;;18.70;97.30;;;;;;4995077;28;20022;-89
2023/08/25 11:18:04;;;;;;;2.30;0.75;;;18.90;97.10;;;;;;4995838;28;20029;-89
2023/08/25 11:20:30;;;;;;;2.08;1.00;;;19.00;96.30;;;;;;4994847;28;20038;-88
2023/08/25 11:22:58;;;;;;;5.72;0.90;;;19.00;95.80;;;;;;4995986;28;20029;-87
2023/08/25 11:25:24;;;;;;;3.20;1.17;;;18.90;95.60;;;;;;4995313;28;20056;-90
2023/08/25 11:27:54;;;;;;;4.43;1.13;;;18.80;95.20;;;;;;4994823;28;20049;-86
2023/08/25 11:30:21;;;;;;;3.77;0.93;;;18.90;95.20;;;;;;4996653;28;20066;-86
2023/08/25 11:32:47;;;;;;;4.13;0.73;;;18.90;95.30;;;;;;4995338;28;20091;-88
2023/08/25 11:35:13;;;;;;;3.85;0.90;;;19.00;95.10;;;;;;4995972;28;20506;-88
2023/08/25 11:37:40;;;;;;;2.78;0.88;;;19.20;94.90;;;;;;4993104;28;20061;-88
2023/08/25 11:40:21;;;;;;;2.03;0.98;;;19.30;94.60;;;;;;4996806;28;20026;-88
2023/08/25 11:42:47;;;;;;;3.72;0.82;;;19.50;94.30;;;;;;4995135;28;21258;-88
2023/08/25 11:45:13;;;;;;;2.42;0.70;;;19.70;93.50;;;;;;4999012;28;20038;-87
2023/08/25 11:47:39;;;;;;;1.90;0.80;;;19.80;91.60;;;;;;5002150;28;20030;-88
2023/08/25 11:50:06;;;;;;;4.15;1.05;;;19.70;91.10;;;;;;5000506;28;20111;-88
2023/08/25 11:52:35;;;;;;;1.55;0.95;;;19.60;91.10;;;;;;5003410;28;20061;-88
2023/08/25 11:55:01;;;;;;;1.92;0.88;;;19.50;91.00;;;;;;4999352;28;20025;-90
2023/08/25 11:57:37;;;;;;;2.40;1.23;;;19.50;90.80;;;;;;4997448;28;20046;-87
2023/08/25 12:00:07;;;;;;;2.05;1.00;;;19.30;90.60;;;;;;4995169;28;20029;-88
2023/08/25 12:02:33;;;;;;;5.25;0.93;;;19.30;90.80;;;;;;4993811;28;20053;-88
2023/08/25 12:05:04;;;;;;;2.70;1.05;;;19.30;90.80;;;;;;4992610;28;20034;-88
2023/08/25 12:07:31;;;;;;;3.20;1.10;;;19.20;90.70;;;;;;4992260;28;20030;-89
2023/08/25 12:09:59;;;;;;;8.18;1.45;;;19.10;90.60;;;;;;4993654;28;20066;-88
2023/08/25 12:12:25;;;;;;;2.80;0.82;;;19.00;90.80;;;;;;4994667;28;20599;-90
2023/08/25 12:14:52;;;;;;;4.00;1.05;;;19.00;90.80;;;;;;4995038;28;20018;-88
2023/08/25 12:17:27;;;;;;;5.47;1.98;;;19.00;90.90;;;;;;4994583;28;20109;-92
2023/08/25 12:19:55;;;;;;;3.03;1.70;;;19.00;91.00;;;;;;4996978;28;20065;-90
2023/08/25 12:22:23;;;;;;;3.20;2.00;;;18.90;91.10;;;;;;4998221;28;20025;-89
2023/08/25 12:24:49;;;;;;;4.13;2.22;;;18.80;91.30;;;;;;4995035;28;20025;-90
2023/08/25 12:27:20;;;;;;;4.63;2.20;;;18.70;91.60;;;;;;4996433;28;20030;-90
2023/08/25 12:29:45;;;;;;;3.88;2.58;;;18.80;92.10;;;;;;4993962;28;20018;-91
2023/08/25 12:32:11;;;;;;;3.53;2.10;;;18.70;92.40;;;;;;4993404;28;20430;-93
2023/08/25 12:34:37;;;;;;;6.65;2.83;;;18.60;92.60;;;;;;4992115;28;20080;-91
2023/08/25 12:37:06;;;;;;;6.63;2.70;;;18.60;93.00;;;;;;5007685;28;20435;-91
2023/08/25 12:39:32;;;;;;;2.83;2.10;;;18.50;93.30;;;;;;4992688;28;20068;-90
2023/08/25 12:41:58;;;;;;;4.07;1.90;;;18.40;93.60;;;;;;4992996;28;20033;-90
2023/08/25 12:44:23;;;;;;;3.25;1.58;;;18.40;93.70;;;;;;4990907;28;20523;-90
2023/08/25 12:46:49;;;;;;;4.25;1.63;;;18.40;93.90;;;;;;4990397;28;20448;-90
2023/08/25 12:49:15;;;;;;;4.47;1.60;;;18.30;94.10;;;;;;4989989;28;20612;-92
2023/08/25 12:51:41;;;;;;;4.95;1.70;;;18.20;94.40;;;;;;4989975;28;20026;-92